createdAt,value
2022-11-05T00:00:36.213Z,100246.84
2022-11-05T00:03:21.578Z,100251.16
2022-11-05T00:06:09.593Z,100256.34
2022-11-05T00:08:59.298Z,100256.66
2022-11-05T00:11:45.934Z,100253.66
2022-11-05T00:14:31.532Z,100260.25
2022-11-05T00:16:58.439Z,100257.75
2022-11-05T00:19:25.202Z,100261.78
2022-11-05T00:22:10.495Z,100261.53
2022-11-05T00:24:55.964Z,100260.91
2022-11-05T00:27:25.674Z,100265.28
2022-11-05T00:29:52.634Z,100267.16
2022-11-05T00:32:19.358Z,100273.03
2022-11-05T00:34:45.989Z,100281.69
2022-11-05T00:37:12.574Z,100282.81
2022-11-05T00:39:39.195Z,100286.00
2022-11-05T00:42:24.495Z,100282.25
2022-11-05T00:45:03.375Z,100293.25
2022-11-05T00:47:51.739Z,100287.97
2022-11-05T00:50:20.035Z,100299.59
2022-11-05T00:57:05.565Z,100303.75
2022-11-05T00:59:32.173Z,100299.53
2022-11-05T01:01:59.299Z,100302.63
2022-11-05T01:04:26.109Z,100293.75
2022-11-05T01:06:52.673Z,100303.16
2022-11-05T01:09:19.346Z,100302.25
2022-11-05T01:11:46.315Z,100311.31
2022-11-05T01:14:15.867Z,100303.97
2022-11-05T01:16:42.647Z,100310.78
2022-11-05T01:19:10.503Z,100306.91
2022-11-05T01:21:37.404Z,100303.50
2022-11-05T01:24:04.572Z,100310.66
2022-11-05T01:26:31.216Z,100311.31
2022-11-05T01:29:00.493Z,100318.28
2022-11-05T01:31:28.528Z,100327.41
2022-11-05T01:33:55.236Z,100324.41
2022-11-05T01:36:21.845Z,100319.53
2022-11-05T01:38:48.437Z,100325.41
2022-11-05T01:41:15.062Z,100324.56
2022-11-05T01:43:59.918Z,100334.72
2022-11-05T01:46:40.239Z,100335.44
2022-11-05T01:49:18.795Z,100337.34
2022-11-05T01:51:46.056Z,100337.06
2022-11-05T01:54:16.652Z,100335.03
2022-11-05T01:56:49.499Z,100346.78
2022-11-05T01:59:28.188Z,100341.81
2022-11-05T02:02:00.231Z,100342.13
2022-11-05T02:04:35.790Z,100347.84
2022-11-05T02:07:09.280Z,100355.66
2022-11-05T02:09:43.683Z,100358.50
2022-11-05T02:12:12.356Z,100357.69
2022-11-05T02:14:39.019Z,100353.03
2022-11-05T02:17:14.734Z,100355.09
2022-11-05T02:20:18.642Z,100355.31
2022-11-05T02:23:31.285Z,100355.56
2022-11-05T02:26:20.046Z,100363.41
2022-11-05T02:29:25.791Z,100364.59
2022-11-05T02:31:59.123Z,100366.50
2022-11-05T02:34:54.685Z,100374.56
2022-11-05T02:37:40.250Z,100379.69
2022-11-05T02:40:25.626Z,100383.13
2022-11-05T02:43:03.442Z,100385.50
2022-11-05T02:45:33.008Z,100385.50
2022-11-05T02:48:37.031Z,100385.97
2022-11-05T02:51:12.359Z,100394.59
2022-11-05T02:53:48.491Z,100393.97
2022-11-05T02:56:36.828Z,100385.72
2022-11-05T02:59:03.508Z,100392.50
2022-11-05T03:01:30.255Z,100390.22
2022-11-05T03:04:03.599Z,100397.38
2022-11-05T03:07:12.362Z,100388.25
2022-11-05T03:09:57.649Z,100390.53
2022-11-05T03:13:03.727Z,100385.81
2022-11-05T03:15:47.135Z,100387.34
2022-11-05T03:18:35.333Z,100394.44
2022-11-05T03:21:13.928Z,100399.97
2022-11-05T03:23:56.075Z,100403.72
2022-11-05T03:27:05.066Z,100405.91
2022-11-05T03:29:41.189Z,100411.22
2022-11-05T03:32:09.579Z,100409.28
2022-11-05T03:34:42.379Z,100420.75
2022-11-05T03:37:10.715Z,100421.72
2022-11-05T03:39:43.264Z,100431.59
2022-11-05T03:42:15.727Z,100429.78
2022-11-05T03:44:58.404Z,100431.66
2022-11-05T03:47:35.498Z,100433.22
2022-11-05T03:50:13.040Z,100435.03
2022-11-05T03:52:48.921Z,100442.03
2022-11-05T03:55:22.232Z,100448.03
2022-11-05T03:57:53.612Z,100446.63
2022-11-05T04:00:21.341Z,100452.59
2022-11-05T04:02:48.080Z,100450.50
2022-11-05T04:05:14.914Z,100458.16
2022-11-05T04:08:02.840Z,100452.56
2022-11-05T04:10:48.099Z,100464.44
2022-11-05T04:13:26.798Z,100468.63
2022-11-05T04:16:13.571Z,100475.09
2022-11-05T04:18:40.727Z,100470.97
2022-11-05T04:21:27.490Z,100467.16
2022-11-05T04:24:09.493Z,100476.28
2022-11-05T04:26:41.881Z,100470.56
2022-11-05T04:29:27.216Z,100477.00
2022-11-05T04:31:54.515Z,100479.41
2022-11-05T04:34:24.656Z,100482.41
2022-11-05T04:36:53.020Z,100484.59
2022-11-05T04:39:20.596Z,100494.81
2022-11-05T04:41:50.301Z,100485.84
2022-11-05T04:44:17.201Z,100492.41
2022-11-05T04:46:43.918Z,100493.00
2022-11-05T04:49:10.541Z,100492.41
2022-11-05T04:51:37.153Z,100491.84
2022-11-05T04:54:03.919Z,100487.56
2022-11-05T04:56:30.599Z,100489.59
2022-11-05T04:58:57.178Z,100493.19
2022-11-05T05:01:25.390Z,100491.81
2022-11-05T05:03:53.841Z,100500.34
2022-11-05T05:06:21.401Z,100493.22
2022-11-05T05:08:49.788Z,100497.44
2022-11-05T05:11:20.144Z,100499.44
2022-11-05T05:13:48.297Z,100513.00
2022-11-05T05:16:24.420Z,100508.22
2022-11-05T05:18:52.066Z,100518.63
2022-11-05T05:21:38.923Z,100509.59
2022-11-05T05:24:08.612Z,100510.97
2022-11-05T05:26:40.877Z,100520.59
2022-11-05T05:29:08.238Z,100517.09
2022-11-05T05:31:35.031Z,100522.72
2022-11-05T05:34:02.040Z,100524.25
2022-11-05T05:36:28.664Z,100527.75
2022-11-05T05:38:55.263Z,100530.91
2022-11-05T05:41:21.926Z,100534.84
2022-11-05T05:43:48.615Z,100534.25
2022-11-05T05:46:17.617Z,100536.63
2022-11-05T05:48:48.981Z,100537.91
2022-11-05T05:51:15.678Z,100539.31
2022-11-05T05:53:42.290Z,100549.31
2022-11-05T05:56:08.908Z,100558.44
2022-11-05T05:58:37.752Z,100553.69
2022-11-05T06:01:07.990Z,100555.19
2022-11-05T06:03:35.114Z,100561.69
2022-11-05T06:06:03.501Z,100558.09
2022-11-05T06:08:30.683Z,100569.28
2022-11-05T06:10:58.142Z,100572.22
2022-11-05T06:13:25.649Z,100572.78
2022-11-05T06:15:52.546Z,100575.13
2022-11-05T06:18:19.691Z,100585.88
2022-11-05T06:20:46.296Z,100588.69
2022-11-05T06:23:13.303Z,100600.16
2022-11-05T06:25:41.576Z,100597.44
2022-11-05T06:28:08.285Z,100598.28
2022-11-05T06:30:35.076Z,100606.94
2022-11-05T06:33:05.651Z,100607.75
2022-11-05T06:35:32.485Z,100610.44
2022-11-05T06:38:01.826Z,100618.59
2022-11-05T06:40:29.553Z,100622.56
2022-11-05T06:42:56.196Z,100622.22
2022-11-05T06:45:22.857Z,100630.97
2022-11-05T06:47:55.267Z,100635.88
2022-11-05T06:50:21.901Z,100632.25
2022-11-05T06:52:59.838Z,100641.13
2022-11-05T06:55:28.782Z,100641.13
2022-11-05T06:57:56.061Z,100640.09
2022-11-05T07:00:23.693Z,100644.41
2022-11-05T07:02:50.360Z,100648.47
2022-11-05T07:05:17.627Z,100647.00
2022-11-05T07:07:45.598Z,100647.31
2022-11-05T07:10:15.406Z,100654.44
2022-11-05T07:12:42.408Z,100668.00
2022-11-05T07:15:10.737Z,100668.94
2022-11-05T07:17:37.545Z,100670.31
2022-11-05T07:20:05.942Z,100682.13
2022-11-05T07:22:33.213Z,100685.63
2022-11-05T07:24:59.918Z,100682.47
2022-11-05T07:27:26.689Z,100690.78
2022-11-05T07:29:53.386Z,100691.16
2022-11-05T07:32:20.027Z,100697.44
2022-11-05T07:34:46.695Z,100694.16
2022-11-05T07:37:13.436Z,100703.28
2022-11-05T07:39:40.284Z,100703.88
2022-11-05T07:42:06.963Z,100704.78
2022-11-05T07:44:33.960Z,100698.34
2022-11-05T07:47:00.581Z,100709.34
2022-11-05T07:49:27.234Z,100710.63
2022-11-05T07:51:53.875Z,100714.72
2022-11-05T07:54:20.508Z,100720.09
2022-11-05T07:56:47.811Z,100728.41
2022-11-05T07:59:14.405Z,100732.63
2022-11-05T08:01:41.277Z,100732.38
2022-11-05T08:04:07.952Z,100734.59
2022-11-05T08:06:34.649Z,100746.03
2022-11-05T08:09:01.246Z,100745.44
2022-11-05T08:11:27.915Z,100748.50
2022-11-05T08:13:54.623Z,100748.50
2022-11-05T08:16:21.195Z,100756.09
2022-11-05T08:18:48.556Z,100749.06
2022-11-05T08:21:15.317Z,100749.03
2022-11-05T08:23:42.902Z,100755.69
2022-11-05T08:26:09.985Z,100762.13
2022-11-05T08:28:36.616Z,100764.00
2022-11-05T08:31:03.246Z,100770.69
2022-11-05T08:33:31.427Z,100764.59
2022-11-05T08:36:02.877Z,100774.56
2022-11-05T08:38:29.955Z,100771.84
2022-11-05T08:40:57.873Z,100774.44
2022-11-05T08:43:24.431Z,100779.59
2022-11-05T08:45:51.084Z,100783.69
2022-11-05T08:48:19.584Z,100782.50
2022-11-05T08:50:48.437Z,100788.00
2022-11-05T08:53:15.972Z,100790.00
2022-11-05T08:55:43.931Z,100788.72
2022-11-05T08:58:12.948Z,100789.78
2022-11-05T09:00:40.082Z,100780.88
2022-11-05T09:03:08.925Z,100791.06
2022-11-05T09:05:38.736Z,100790.50
2022-11-05T09:08:06.564Z,100791.66
2022-11-05T09:10:33.398Z,100786.59
2022-11-05T09:13:00.153Z,100789.88
2022-11-05T09:15:26.795Z,100793.63
2022-11-05T09:17:53.630Z,100795.81
2022-11-05T09:20:20.393Z,100792.81
2022-11-05T09:22:47.813Z,100801.34
2022-11-05T09:25:15.898Z,100798.28
2022-11-05T09:27:43.610Z,100808.22
2022-11-05T09:30:11.865Z,100807.28
2022-11-05T09:32:38.795Z,100805.66
2022-11-05T09:35:06.533Z,100804.03
2022-11-05T09:37:33.216Z,100801.78
2022-11-05T09:40:00.058Z,100812.22
2022-11-05T09:42:40.401Z,100815.22
2022-11-05T09:45:20.365Z,100819.13
2022-11-05T09:47:56.135Z,100820.75
2022-11-05T09:50:33.648Z,100817.81
2022-11-05T09:53:01.645Z,100826.91
2022-11-05T09:55:38.571Z,100828.91
2022-11-05T09:58:16.475Z,100831.09
2022-11-05T10:00:44.530Z,100830.69
2022-11-05T10:03:15.464Z,100829.53
2022-11-05T10:05:43.033Z,100832.56
2022-11-05T10:08:18.074Z,100833.88
2022-11-05T10:10:49.809Z,100831.84
2022-11-05T10:13:25.395Z,100833.06
2022-11-05T10:16:00.128Z,100837.97
2022-11-05T10:18:34.283Z,100837.97
2022-11-05T10:21:01.269Z,100847.03
2022-11-05T10:23:28.606Z,100849.16
2022-11-05T10:25:58.680Z,100850.22
2022-11-05T10:28:27.904Z,100851.25
2022-11-05T10:31:00.773Z,100851.88
2022-11-05T10:33:50.490Z,100851.09
2022-11-05T10:36:31.912Z,100850.78
2022-11-05T10:39:19.560Z,100864.63
2022-11-05T10:41:54.150Z,100858.56
2022-11-05T10:44:44.114Z,100867.16
2022-11-05T10:47:43.635Z,100862.41
2022-11-05T10:50:17.051Z,100870.41
2022-11-05T10:53:02.586Z,100868.66
2022-11-05T10:55:32.685Z,100860.50
2022-11-05T10:58:15.758Z,100861.94
2022-11-05T11:00:45.170Z,100860.91
2022-11-05T11:03:53.229Z,100863.13
2022-11-05T11:06:27.251Z,100865.19
2022-11-05T11:08:56.644Z,100866.97
2022-11-05T11:11:34.044Z,100858.84
2022-11-05T11:14:14.036Z,100864.53
2022-11-05T11:16:46.490Z,100861.31
2022-11-05T11:19:33.948Z,100859.09
2022-11-05T11:22:03.546Z,100862.59
2022-11-05T11:24:51.861Z,100854.78
2022-11-05T11:27:23.940Z,100854.22
2022-11-05T11:30:04.975Z,100856.28
2022-11-05T11:32:39.274Z,100853.75
2022-11-05T11:35:17.921Z,100853.25
2022-11-05T11:37:46.180Z,100854.31
2022-11-05T11:40:16.920Z,100844.88
2022-11-05T11:42:54.712Z,100849.50
2022-11-05T11:45:54.871Z,100842.22
2022-11-05T11:48:29.608Z,100835.69
2022-11-05T11:50:57.956Z,100844.03
2022-11-05T11:53:28.643Z,100842.22
2022-11-05T11:55:55.216Z,100842.84
2022-11-05T11:58:23.482Z,100841.50
2022-11-05T12:00:56.689Z,100843.91
2022-11-05T12:03:33.059Z,100842.03
2022-11-05T12:06:20.681Z,100839.88
2022-11-05T12:09:21.088Z,100845.63
2022-11-05T12:12:21.024Z,100849.59
2022-11-05T12:14:53.376Z,100844.25
2022-11-05T12:17:29.089Z,100842.16
2022-11-05T12:20:20.353Z,100841.75
2022-11-05T12:23:08.817Z,100841.81
2022-11-05T12:25:51.683Z,100833.91
2022-11-05T12:28:36.253Z,100838.31
2022-11-05T12:31:19.717Z,100845.31
2022-11-05T12:34:03.100Z,100839.94
2022-11-05T12:36:38.486Z,100830.34
2022-11-05T12:39:26.810Z,100830.47
2022-11-05T12:42:01.121Z,100831.78
2022-11-05T12:44:48.871Z,100839.94
2022-11-05T12:47:37.994Z,100840.81
2022-11-05T12:50:13.518Z,100844.00
2022-11-05T12:52:55.125Z,100830.53
2022-11-05T12:55:25.221Z,100835.34
2022-11-05T12:57:54.719Z,100828.72
2022-11-05T13:00:24.363Z,100835.03
2022-11-05T13:02:59.981Z,100833.88
2022-11-05T13:05:36.213Z,100833.38
2022-11-05T13:08:21.598Z,100840.44
2022-11-05T13:11:03.400Z,100841.88
2022-11-05T13:13:43.885Z,100856.19
2022-11-05T13:16:24.137Z,100857.63
2022-11-05T13:18:54.990Z,100853.78
2022-11-05T13:21:25.093Z,100871.47
2022-11-05T13:24:07.018Z,100869.91
2022-11-05T13:26:43.363Z,100866.84
2022-11-05T13:29:34.321Z,100855.69
2022-11-05T13:32:22.905Z,100847.13
2022-11-05T13:34:49.779Z,100843.13
2022-11-05T13:37:42.169Z,100835.28
2022-11-05T13:40:13.204Z,100838.78
2022-11-05T13:43:02.070Z,100840.84
2022-11-05T13:45:47.659Z,100842.44
2022-11-05T13:48:36.964Z,100845.00
2022-11-05T13:51:09.439Z,100849.38
2022-11-05T13:53:54.420Z,100846.47
2022-11-05T13:56:45.070Z,100840.00
2022-11-05T13:59:36.119Z,100855.78
2022-11-05T14:02:16.627Z,100852.75
2022-11-05T14:05:00.534Z,100852.19
2022-11-05T14:07:33.584Z,100852.69
2022-11-05T14:10:34.780Z,100853.66
2022-11-05T14:13:25.273Z,100852.19
2022-11-05T14:16:04.129Z,100848.78
2022-11-05T14:18:43.081Z,100856.91
2022-11-05T14:21:27.798Z,100851.47
2022-11-05T14:24:24.503Z,100850.34
2022-11-05T14:27:03.343Z,100861.63
2022-11-05T14:29:39.060Z,100858.69
2022-11-05T14:32:18.713Z,100863.88
2022-11-05T14:35:02.121Z,100867.75
2022-11-05T14:37:40.979Z,100863.31
2022-11-05T14:40:23.436Z,100862.19
2022-11-05T14:43:02.903Z,100867.66
2022-11-05T14:45:30.882Z,100864.13
2022-11-05T14:48:43.786Z,100859.75
2022-11-05T14:51:30.914Z,100862.94
2022-11-05T14:54:04.631Z,100875.66
2022-11-05T14:56:43.455Z,100868.91
2022-11-05T14:59:22.164Z,100868.56
2022-11-05T15:01:48.813Z,100864.88
2022-11-05T15:04:40.492Z,100871.56
2022-11-05T15:07:07.106Z,100871.84
2022-11-05T15:09:40.355Z,100873.88
2022-11-05T15:12:37.507Z,100874.41
2022-11-05T15:15:21.557Z,100877.34
2022-11-05T15:17:58.282Z,100889.63
2022-11-05T15:20:39.641Z,100891.63
2022-11-05T15:23:11.828Z,100891.28
2022-11-05T15:26:01.480Z,100883.09
2022-11-05T15:28:33.893Z,100879.09
2022-11-05T15:31:13.866Z,100876.31
2022-11-05T15:33:41.991Z,100878.75
2022-11-05T15:36:29.382Z,100883.22
2022-11-05T15:39:23.347Z,100888.47
2022-11-05T15:41:44.639Z,100884.84
2022-11-05T15:44:29.924Z,100890.09
2022-11-05T15:47:25.978Z,100883.56
2022-11-05T15:50:17.316Z,100885.78
2022-11-05T15:52:53.822Z,100894.22
2022-11-05T15:55:25.749Z,100893.16
2022-11-05T15:57:59.252Z,100886.47
2022-11-05T16:00:28.300Z,100889.53
2022-11-05T16:02:59.320Z,100895.13
2022-11-05T16:05:28.425Z,100894.66
2022-11-05T16:07:58.373Z,100891.75
2022-11-05T16:10:30.875Z,100891.16
2022-11-05T16:12:57.598Z,100892.47
2022-11-05T16:15:29.389Z,100898.28
2022-11-05T16:18:00.673Z,100902.84
2022-11-05T16:20:32.208Z,100895.00
2022-11-05T16:23:02.571Z,100899.66
2022-11-05T16:25:31.730Z,100903.88
2022-11-05T16:27:59.797Z,100903.63
2022-11-05T16:30:26.892Z,100899.88
2022-11-05T16:32:54.319Z,100898.44
2022-11-05T16:35:23.492Z,100893.88
2022-11-05T16:37:52.444Z,100898.22
2022-11-05T16:40:22.632Z,100905.44
2022-11-05T16:42:51.491Z,100904.75
2022-11-05T16:45:20.859Z,100902.28
2022-11-05T16:47:48.217Z,100903.81
2022-11-05T16:50:20.159Z,100906.81
2022-11-05T16:52:47.317Z,100907.13
2022-11-05T16:55:15.216Z,100902.34
2022-11-05T16:57:44.454Z,100901.59
2022-11-05T17:00:15.574Z,100910.06
2022-11-05T17:02:42.995Z,100911.94
2022-11-05T17:05:22.081Z,100914.50
2022-11-05T17:07:48.830Z,100918.13
2022-11-05T17:10:15.899Z,100921.88
2022-11-05T17:12:43.313Z,100931.97
2022-11-05T17:15:24.184Z,100934.38
2022-11-05T17:17:52.959Z,100948.09
2022-11-05T17:20:39.768Z,100958.84
2022-11-05T17:23:09.650Z,100953.47
2022-11-05T17:25:36.803Z,100960.84
2022-11-05T17:28:03.812Z,100959.88
2022-11-05T17:30:30.884Z,100956.28
2022-11-05T17:32:57.672Z,100963.53
2022-11-05T17:35:24.435Z,100968.97
2022-11-05T17:37:51.082Z,100960.59
2022-11-05T17:40:20.417Z,100964.94
2022-11-05T17:42:47.060Z,100970.19
2022-11-05T17:45:14.136Z,100968.34
2022-11-05T17:47:42.087Z,100977.38
2022-11-05T17:50:11.084Z,100975.28
2022-11-05T17:52:38.426Z,100968.13
2022-11-05T17:55:07.129Z,100960.88
2022-11-05T17:57:33.742Z,100960.50
2022-11-05T18:00:00.312Z,100952.78
2022-11-05T18:02:29.449Z,100967.63
2022-11-05T18:04:56.230Z,100978.72
2022-11-05T18:07:22.784Z,100977.53
2022-11-05T18:09:49.411Z,100985.88
2022-11-05T18:12:16.090Z,100976.19
2022-11-05T18:14:42.719Z,100983.13
2022-11-05T18:17:09.338Z,100979.47
2022-11-05T18:19:38.208Z,100978.00
2022-11-05T18:22:04.981Z,100970.81
2022-11-05T18:24:32.164Z,100989.63
2022-11-05T18:26:59.115Z,100982.16
2022-11-05T18:29:25.892Z,100978.19
2022-11-05T18:31:52.513Z,100982.38
2022-11-05T18:34:19.137Z,100989.63
2022-11-05T18:36:45.844Z,100988.75
2022-11-05T18:39:12.506Z,100991.88
2022-11-05T18:41:39.203Z,100985.16
2022-11-05T18:44:06.303Z,100978.19
2022-11-05T18:46:57.020Z,100979.69
2022-11-05T18:49:20.924Z,100985.88
2022-11-05T18:51:47.621Z,100985.44
2022-11-05T18:54:14.455Z,100987.81
2022-11-05T18:56:45.306Z,100979.41
2022-11-05T18:59:35.032Z,100983.31
2022-11-05T19:01:59.881Z,100977.81
2022-11-05T19:04:26.971Z,100975.13
2022-11-05T19:06:53.664Z,100977.44
2022-11-05T19:09:20.818Z,100972.75
2022-11-05T19:11:47.527Z,100973.66
2022-11-05T19:14:14.130Z,100991.25
2022-11-05T19:16:40.815Z,100986.22
2022-11-05T19:19:07.488Z,100988.69
2022-11-05T19:21:34.180Z,100995.31
2022-11-05T19:24:03.798Z,100996.81
2022-11-05T19:26:30.872Z,100988.41
2022-11-05T19:28:59.459Z,100995.13
2022-11-05T19:31:26.729Z,100986.81
2022-11-05T19:33:54.491Z,101003.66
2022-11-05T19:36:23.360Z,100994.63
2022-11-05T19:38:56.222Z,100991.63
2022-11-05T19:41:23.480Z,100984.25
2022-11-05T19:43:50.660Z,100983.97
2022-11-05T19:46:19.331Z,100987.03
2022-11-05T19:48:46.683Z,100983.31
2022-11-05T19:51:16.201Z,100982.59
2022-11-05T19:53:43.620Z,100985.44
2022-11-05T19:56:17.420Z,100989.84
2022-11-05T19:58:44.904Z,100986.66
2022-11-05T20:01:12.728Z,100981.91
2022-11-05T20:03:39.946Z,100990.16
2022-11-05T20:06:09.624Z,100987.59
2022-11-05T20:08:47.833Z,100990.75
2022-11-05T20:11:23.553Z,100990.53
2022-11-05T20:13:50.225Z,100989.06
2022-11-05T20:16:21.973Z,100986.19
2022-11-05T20:18:48.974Z,100986.22
2022-11-05T20:21:15.716Z,100990.03
2022-11-05T20:23:42.763Z,100988.91
2022-11-05T20:26:10.322Z,100984.50
2022-11-05T20:28:38.197Z,100990.28
2022-11-05T20:31:10.157Z,100986.50
2022-11-05T20:33:37.392Z,100985.78
2022-11-05T20:36:07.914Z,100980.81
2022-11-05T20:38:34.625Z,100981.56
2022-11-05T20:41:06.821Z,100988.91
2022-11-05T20:43:33.933Z,100987.88
2022-11-05T20:46:00.660Z,100981.31
2022-11-05T20:48:31.021Z,100981.41
2022-11-05T20:50:57.827Z,100985.28
2022-11-05T20:53:24.511Z,100982.56
2022-11-05T20:55:51.099Z,100985.66
2022-11-05T20:58:18.376Z,100985.75
2022-11-05T21:00:51.204Z,100987.53
2022-11-05T21:03:19.113Z,100988.53
2022-11-05T21:05:47.181Z,100993.13
2022-11-05T21:08:14.600Z,100991.56
2022-11-05T21:10:44.841Z,100997.34
2022-11-05T21:13:15.288Z,101001.31
2022-11-05T21:15:50.168Z,100994.59
2022-11-05T21:18:18.132Z,101001.16
2022-11-05T21:20:46.059Z,100996.28
2022-11-05T21:23:13.594Z,100993.44
2022-11-05T21:25:41.595Z,100990.22
2022-11-05T21:28:10.317Z,100989.47
2022-11-05T21:30:38.828Z,100981.16
2022-11-05T21:33:05.954Z,100980.63
2022-11-05T21:35:32.835Z,100978.41
2022-11-05T21:38:00.006Z,100981.78
2022-11-05T21:40:26.774Z,100980.25
2022-11-05T21:42:53.311Z,100975.00
2022-11-05T21:45:19.887Z,100976.63
2022-11-05T21:47:46.454Z,100971.88
2022-11-05T21:50:15.197Z,100976.97
2022-11-05T21:53:02.032Z,100975.91
2022-11-05T21:55:47.273Z,100979.97
2022-11-05T21:58:34.731Z,100984.56
2022-11-05T22:01:02.360Z,100975.44
2022-11-05T22:03:29.970Z,100991.47
2022-11-05T22:05:57.036Z,100984.72
2022-11-05T22:08:23.736Z,100985.41
2022-11-05T22:10:50.392Z,100985.50
2022-11-05T22:13:16.971Z,100983.03
2022-11-05T22:15:43.618Z,100989.56
2022-11-05T22:18:10.688Z,100980.72
2022-11-05T22:20:38.978Z,100982.78
2022-11-05T22:23:10.870Z,100980.91
2022-11-05T22:25:38.071Z,100988.22
2022-11-05T22:28:04.853Z,100983.19
2022-11-05T22:30:36.245Z,100988.91
2022-11-05T22:33:02.861Z,100979.84
2022-11-05T22:35:29.518Z,100986.28
2022-11-05T22:37:56.111Z,100983.41
2022-11-05T22:40:24.080Z,100977.22
2022-11-05T22:42:50.893Z,100973.91
2022-11-05T22:45:17.480Z,100972.09
2022-11-05T22:47:44.092Z,100969.59
2022-11-05T22:50:11.217Z,100969.50
2022-11-05T22:52:37.887Z,100975.03
2022-11-05T22:55:06.136Z,100978.94
2022-11-05T22:57:32.967Z,100978.50
2022-11-05T22:59:59.558Z,100978.94
2022-11-05T23:02:26.267Z,100976.06
2022-11-05T23:04:53.060Z,100982.66
2022-11-05T23:07:38.215Z,100981.84
2022-11-05T23:10:23.783Z,100983.41
2022-11-05T23:12:50.351Z,100977.25
2022-11-05T23:15:35.285Z,100971.84
2022-11-05T23:18:20.603Z,100968.28
2022-11-05T23:21:05.916Z,100965.16
2022-11-05T23:23:51.187Z,100968.59
2022-11-05T23:26:36.447Z,100961.28
2022-11-05T23:29:03.378Z,100956.78
2022-11-05T23:31:48.848Z,100945.38
2022-11-05T23:34:15.555Z,100953.19
2022-11-05T23:37:01.038Z,100964.41
2022-11-05T23:39:27.849Z,100959.50
2022-11-05T23:42:12.946Z,100953.06
2022-11-05T23:44:58.154Z,100949.44
2022-11-05T23:47:43.429Z,100946.75
2022-11-05T23:50:10.029Z,100945.66
2022-11-05T23:52:36.592Z,100942.38
2022-11-05T23:55:03.644Z,100949.38
2022-11-05T23:57:30.394Z,100942.00
2022-11-05T23:59:57.111Z,100946.00
